• Join FlightAware (Why Join?)
  • Login
  • US Flag 
 
06:39AM EST


 

Airport Tracker/Info


-or-


 

Live Flight TrackerFlight Track Log ✈ VH-HTV ✈ 13-Nov-2013 ✈ YMOH - YMOH

Flight Track Log - Related Links

Times and Time Zones

All times are in EST time to prevent confusion due to time zone crossing. See the VH-HTV flight status page for this flight to view local times or setup timezone preferences in your user account.

Time Position Orientation Groundspeed Altitude Reporting Facility
EST Latitude Longitude Course Direction KTS MPH feet Rate Location/Type
08:32PM -27.8028 153.2688 135° Southeast 120 138 1,500  Level Aus ATC (RADAR)
08:32PM -27.8229 153.2914 135° Southeast 120 138 1,500  Level Aus ATC (RADAR)
08:33PM -27.8331 153.3034 134° Southeast 123 142 1,500  Level Aus ATC (RADAR)
08:33PM -27.8474 153.3193 135° Southeast 122 140 1,500  Level Aus ATC (RADAR)
08:35PM -27.8755 153.3513 135° Southeast 118 136 1,500  Level Aus ATC (RADAR)
08:35PM -27.8858 153.3633 134° Southeast 123 142 1,500  Level Aus ATC (RADAR)
08:36PM -27.8995 153.3800 133° Southeast 123 142 1,500  Level Aus ATC (RADAR)
08:36PM -27.9183 153.4008 136° Southeast 124 143 1,500 -120 Level Aus ATC (RADAR)
08:37PM -27.9315 153.4186 130° Southeast 126 145 1,400 -540 Descending Aus ATC (RADAR)
08:38PM -27.9570 153.4338 152° Southeast 144 166 800 -360 Descending Aus ATC (RADAR)
08:38PM -27.9727 153.4337 180° South 137 158 1,000 180 Climbing Aus ATC (RADAR)
08:39PM -28.0175 153.4394 174° South 136 157 1,100  Climbing Aus ATC (RADAR)
08:40PM -28.0401 153.4432 172° South 139 160 1,000 -120 Descending Aus ATC (RADAR)
08:40PM -28.0494 153.4458 166° South 138 159 1,000  Level Aus ATC (RADAR)
08:41PM -28.0717 153.4512 168° South 140 161 1,000  Level Aus ATC (RADAR)
08:42PM -28.0957 153.4672 150° Southeast 133 153 1,000  Level Aus ATC (RADAR)
08:42PM -28.1174 153.4814 150° Southeast 134 154 1,000  Level Aus ATC (RADAR)
08:43PM -28.1389 153.4997 143° Southeast 127 146 1,000 -120 Level Aus ATC (RADAR)
08:43PM -28.1508 153.5087 146° Southeast 123 142 900 -120 Descending Aus ATC (RADAR)
08:45PM -28.1573 153.5230 117° Southeast 36 41 800  Descending Aus ATC (RADAR)
08:45PM -28.1544 153.5197 316° Northwest 38 44 900 180 Climbing Aus ATC (RADAR)
08:46PM -28.1552 153.5127 263° West 38 44 1,000 60 Climbing Aus ATC (RADAR)
08:46PM -28.1609 153.5199 132° Southeast 43 49 1,000 -180 Level Aus ATC (RADAR)
08:47PM -28.1580 153.5264 63° Northeast 35 40 800 -120 Descending Aus ATC (RADAR)
08:48PM -28.1515 153.5159 305° West 58 67 900 60 Climbing Aus ATC (RADAR)
08:48PM -28.1548 153.5119 226° Southwest 59 68 900 120 Level Aus ATC (RADAR)
08:49PM -28.1583 153.5177 124° Southeast 41 47 1,000 -360 Climbing Aus ATC (RADAR)
08:50PM -28.1612 153.5089 249° West 26 30 100 -480 Descending Aus ATC (RADAR)
08:51PM -28.1602 153.5096 33° Northeast 26 30 100 60 Level Aus ATC (RADAR)
08:53PM -28.1170 153.4740 161° South 60 Descending Aus ATC (Calculated)
08:55PM -28.1170 153.4740 161° South 60 Level Aus ATC (Calculated)
08:59PM -28.0360 153.4074 150° Southeast 60 Level Aus ATC (Calculated)
09:02PM -27.9650 153.3492 148° Southeast 120 Level Aus ATC (Calculated)
09:05PM -28.1772 153.4981 33° Northeast 13 15 1,000 180 Climbing Aus ATC (RADAR)
09:06PM -28.1778 153.4994 115° Southeast 11 13 800 -120 Descending Aus ATC (RADAR)
09:06PM -28.1777 153.4986 277° West 4 5 900 60 Climbing Aus ATC (RADAR)
09:07PM -28.1752 153.4970 331° Northwest 18 21 900 -180 Level Aus ATC (RADAR)
09:07PM -28.1686 153.4942 339° North 43 49 700 -120 Descending Aus ATC (RADAR)
09:08PM -28.1687 153.4915 268° West 15 17 800 120 Climbing Aus ATC (RADAR)
09:09PM -28.1698 153.4916 172° South 13 15 900 480 Climbing Aus ATC (RADAR)
09:10PM -28.1632 153.4805 304° West 64 74 1,500 360 Climbing Aus ATC (RADAR)
09:10PM -28.1562 153.4709 309° West 88 101 1,500 -240 Level Aus ATC (RADAR)
09:11PM -28.1476 153.4598 311° West 107 123 1,300  Descending Aus ATC (RADAR)
09:11PM -28.1344 153.4426 311° West 106 122 1,500 120 Climbing Aus ATC (RADAR)
09:12PM -28.1175 153.4220 313° West 105 121 1,500 -180 Level Aus ATC (RADAR)
09:13PM -28.1043 153.4071 315° West 111 128 1,300 60 Descending Aus ATC (RADAR)
09:13PM -28.0848 153.3886 320° Northwest 108 124 1,600 120 Climbing Aus ATC (RADAR)
09:14PM -28.0744 153.3804 325° Northwest 108 124 1,500 -120 Descending Aus ATC (RADAR)
09:15PM -28.0389 153.3566 329° Northwest 111 128 1,400 -60 Descending Aus ATC (RADAR)
09:16PM -28.0251 153.3494 335° Northwest 108 124 1,400  Level Aus ATC (RADAR)
09:16PM -28.0092 153.3407 334° Northwest 109 125 1,400 -120 Level Aus ATC (RADAR)
09:17PM -27.9837 153.3276 336° Northwest 106 122 1,300 -120 Descending Aus ATC (RADAR)
09:18PM -27.9677 153.3188 334° Northwest 110 127 1,300  Level Aus ATC (RADAR)
09:19PM -27.9453 153.3063 334° Northwest 107 123 1,300  Level Aus ATC (RADAR)
09:19PM -27.9287 153.2991 339° North 108 124 1,300  Level Aus ATC (RADAR)
09:20PM -27.8962 153.2832 337° Northwest 108 124 1,300  Level Aus ATC (RADAR)
09:21PM -27.8841 153.2781 339° North 110 127 1,300  Level Aus ATC (RADAR)
09:21PM -27.8672 153.2698 337° Northwest 112 129 1,300  Level Aus ATC (RADAR)
09:22PM -27.8483 153.2607 337° Northwest 110 127 1,300  Level Aus ATC (RADAR)
09:23PM -27.8294 153.2522 338° Northwest 109 125 1,300 60 Level Aus ATC (RADAR)
09:24PM -27.8067 153.2410 336° Northwest 107 123 1,400 60 Climbing Aus ATC (RADAR)
09:24PM -27.7903 153.2336 338° Northwest 108 124 1,400 -120 Level Aus ATC (RADAR)
09:25PM -27.7638 153.2209 337° Northwest 110 127 1,300 -120 Descending Aus ATC (RADAR)
09:28PM -27.6898 153.1515 320° Northwest -420 Descending Aus ATC (Calculated)
09:34PM -27.5789 153.0474 320° Northwest  Level Aus ATC (Calculated)
09:38PM -27.5233 152.9955 320° Northwest  Level Aus ATC (Calculated)